createdAt,value
2022-12-29T07:06:29.325Z,95.09
2022-12-29T07:08:27.575Z,94.49
2022-12-29T07:10:26.144Z,95.11
2022-12-29T07:12:24.438Z,94.50
2022-12-29T07:14:22.567Z,94.60
2022-12-29T07:16:21.328Z,94.43
2022-12-29T07:18:19.594Z,94.21
2022-12-29T07:20:23.220Z,93.50
2022-12-29T07:22:26.126Z,92.93
2022-12-29T07:24:26.608Z,92.29
2022-12-29T07:26:25.374Z,91.25
2022-12-29T07:28:23.519Z,90.51
2022-12-29T07:30:21.634Z,89.85
2022-12-29T07:32:21.025Z,88.93
2022-12-29T07:34:19.331Z,88.21
2022-12-29T07:36:18.249Z,87.00
2022-12-29T07:38:17.665Z,85.96
2022-12-29T07:40:16.233Z,84.56
2022-12-29T07:42:14.389Z,84.17
2022-12-29T07:44:15.059Z,83.83
2022-12-29T07:46:55.133Z,83.06
2022-12-29T07:48:45.684Z,82.28
2022-12-29T07:50:43.830Z,81.25
2022-12-29T07:52:42.070Z,80.91
2022-12-29T07:54:41.583Z,81.14
2022-12-29T07:56:39.789Z,80.66
2022-12-29T07:58:38.040Z,81.13
2022-12-29T08:00:36.250Z,81.82
2022-12-29T08:02:35.061Z,82.68
2022-12-29T08:04:33.427Z,82.36
2022-12-29T08:06:31.939Z,82.02
2022-12-29T08:08:30.187Z,82.08
2022-12-29T08:10:29.741Z,81.51
2022-12-29T08:12:33.348Z,82.61
2022-12-29T08:14:31.542Z,82.13
2022-12-29T08:16:29.795Z,81.99
2022-12-29T08:18:28.107Z,80.78
2022-12-29T08:20:26.453Z,81.34
2022-12-29T08:22:25.298Z,80.49
2022-12-29T08:24:23.765Z,79.59
2022-12-29T08:26:23.890Z,78.61
2022-12-29T08:28:22.315Z,78.04
2022-12-29T08:30:20.465Z,77.49
2022-12-29T08:32:19.279Z,76.08
2022-12-29T08:34:17.405Z,74.81
2022-12-29T08:36:15.660Z,73.26
2022-12-29T08:38:14.397Z,72.86
2022-12-29T08:40:13.140Z,71.82
2022-12-29T08:42:12.770Z,71.04
2022-12-29T08:44:14.304Z,71.09
2022-12-29T08:46:12.500Z,71.45
2022-12-29T08:48:10.924Z,70.75
2022-12-29T08:50:09.667Z,66.38
2022-12-29T08:52:07.970Z,61.87
2022-12-29T08:54:06.218Z,61.90
2022-12-29T08:56:05.846Z,61.08
2022-12-29T08:58:17.465Z,60.95
2022-12-29T09:00:17.245Z,59.67
2022-12-29T09:02:20.452Z,57.74
2022-12-29T09:04:22.290Z,56.11
2022-12-29T09:06:20.666Z,54.81
2022-12-29T09:08:23.940Z,51.47
2022-12-29T09:10:24.535Z,50.67
2022-12-29T09:12:22.716Z,51.11
2022-12-29T09:14:24.001Z,52.55
2022-12-29T09:16:24.643Z,53.98
2022-12-29T09:18:21.924Z,53.46
2022-12-29T09:20:21.654Z,51.45
2022-12-29T09:22:19.866Z,48.95
2022-12-29T09:24:18.034Z,48.64
2022-12-29T09:26:16.275Z,49.79
2022-12-29T09:28:14.431Z,49.89
2022-12-29T09:30:15.770Z,49.51
2022-12-29T09:32:18.355Z,47.68
2022-12-29T09:34:17.750Z,46.64
2022-12-29T09:36:15.884Z,46.25
2022-12-29T09:38:14.204Z,44.95
2022-12-29T09:40:26.416Z,43.33
2022-12-29T09:42:29.637Z,47.13
2022-12-29T09:44:41.394Z,46.72
2022-12-29T09:46:45.786Z,43.98
2022-12-29T09:48:49.918Z,44.31
2022-12-29T09:50:54.136Z,47.39
2022-12-29T09:52:59.719Z,45.32
2022-12-29T09:55:05.295Z,45.01
2022-12-29T09:57:12.911Z,44.63
2022-12-29T09:59:17.896Z,43.13
2022-12-29T10:01:27.385Z,40.56
2022-12-29T10:03:34.478Z,39.48
2022-12-29T10:05:41.657Z,41.41
2022-12-29T10:07:47.673Z,45.92
2022-12-29T10:09:56.068Z,47.60
2022-12-29T10:12:08.791Z,48.90
2022-12-29T10:14:31.315Z,50.89
2022-12-29T10:16:35.877Z,53.29
2022-12-29T10:18:57.982Z,56.63
2022-12-29T10:21:01.466Z,58.07
2022-12-29T10:23:13.610Z,59.00
2022-12-29T10:25:17.339Z,58.57
2022-12-29T10:27:17.961Z,59.77
2022-12-29T10:29:21.015Z,60.55
2022-12-29T10:31:24.354Z,62.26
2022-12-29T10:33:25.357Z,63.43
2022-12-29T10:35:27.393Z,63.41
2022-12-29T10:37:35.098Z,62.36
2022-12-29T10:39:41.918Z,61.76
2022-12-29T10:41:46.215Z,60.15
2022-12-29T10:43:49.023Z,59.41
2022-12-29T10:45:48.042Z,58.77
2022-12-29T10:47:55.938Z,57.50
2022-12-29T10:49:55.067Z,56.86
2022-12-29T10:51:59.051Z,56.12
2022-12-29T10:54:04.425Z,55.46
2022-12-29T10:56:04.225Z,51.59
2022-12-29T10:58:05.894Z,49.14
2022-12-29T11:00:11.224Z,46.63
2022-12-29T11:02:33.895Z,46.19
2022-12-29T11:04:45.510Z,45.16
2022-12-29T11:06:45.373Z,43.51
2022-12-29T11:08:53.145Z,42.38
2022-12-29T11:11:01.367Z,43.79
2022-12-29T11:13:00.902Z,45.38
2022-12-29T11:15:15.280Z,45.93
2022-12-29T11:17:18.365Z,44.46
2022-12-29T11:19:24.376Z,42.25
2022-12-29T11:21:33.891Z,40.68
2022-12-29T11:23:34.930Z,41.76
2022-12-29T11:25:34.674Z,45.59
2022-12-29T11:27:33.938Z,49.83
2022-12-29T11:29:40.417Z,53.66
2022-12-29T11:31:43.224Z,56.83
2022-12-29T11:33:41.561Z,59.35
2022-12-29T11:35:43.312Z,61.17
2022-12-29T11:37:43.628Z,62.49
2022-12-29T11:39:53.890Z,62.98
2022-12-29T11:41:56.103Z,63.30
2022-12-29T11:43:57.832Z,64.22
2022-12-29T11:45:57.516Z,64.43
2022-12-29T11:47:59.439Z,64.80
2022-12-29T11:50:00.968Z,65.28
2022-12-29T11:51:59.271Z,65.92
2022-12-29T11:54:00.497Z,66.23
2022-12-29T11:56:02.977Z,66.87
2022-12-29T11:58:06.551Z,65.93
2022-12-29T12:00:16.507Z,66.11
2022-12-29T12:02:43.032Z,66.44
2022-12-29T12:04:42.175Z,67.17
2022-12-29T12:06:47.262Z,67.59
2022-12-29T12:08:51.071Z,67.78
2022-12-29T12:10:55.485Z,67.40
2022-12-29T12:12:55.926Z,67.07
2022-12-29T12:15:00.405Z,66.85
2022-12-29T12:17:16.469Z,67.46
2022-12-29T12:19:22.645Z,67.83
2022-12-29T12:21:31.514Z,67.59
2022-12-29T12:23:38.809Z,68.34
2022-12-29T12:25:43.789Z,67.85
2022-12-29T12:27:50.949Z,68.11
2022-12-29T12:29:54.889Z,68.63
2022-12-29T12:31:59.818Z,69.01
2022-12-29T12:34:03.225Z,70.02
2022-12-29T12:36:22.523Z,70.50
2022-12-29T12:38:29.904Z,71.29
2022-12-29T12:40:59.845Z,71.57
2022-12-29T12:43:15.630Z,71.31
2022-12-29T12:45:36.281Z,71.66
2022-12-29T12:47:50.241Z,72.09
2022-12-29T12:50:24.788Z,71.69
2022-12-29T12:52:33.471Z,71.40
2022-12-29T12:54:47.214Z,71.04
2022-12-29T12:56:53.550Z,71.14
2022-12-29T12:59:00.889Z,71.77
2022-12-29T13:01:14.493Z,72.05
2022-12-29T13:03:19.645Z,72.83
2022-12-29T13:05:39.541Z,73.30
2022-12-29T13:07:51.083Z,73.64
2022-12-29T13:10:02.666Z,74.17
2022-12-29T13:12:13.769Z,74.43
2022-12-29T13:14:29.653Z,74.41
2022-12-29T13:16:36.140Z,74.52
2022-12-29T13:18:47.273Z,74.85
2022-12-29T13:20:51.603Z,74.89
2022-12-29T13:22:58.667Z,74.80
2022-12-29T13:25:29.626Z,75.22
2022-12-29T13:27:38.116Z,75.50
2022-12-29T13:29:43.054Z,75.75
2022-12-29T13:31:50.385Z,76.25
2022-12-29T13:33:55.775Z,76.64
2022-12-29T13:36:03.350Z,76.74
2022-12-29T13:38:11.564Z,76.73
2022-12-29T13:40:16.824Z,76.24
2022-12-29T13:42:18.980Z,76.47
2022-12-29T13:44:22.809Z,76.74
2022-12-29T13:46:25.983Z,76.86
2022-12-29T13:48:29.216Z,77.59
2022-12-29T13:50:31.842Z,78.17
2022-12-29T13:52:39.532Z,78.16
2022-12-29T13:54:42.615Z,78.19
2022-12-29T13:56:44.530Z,78.54
2022-12-29T13:58:50.545Z,78.23
2022-12-29T14:00:56.248Z,78.15
2022-12-29T14:03:21.067Z,78.02
2022-12-29T14:05:34.597Z,77.63
2022-12-29T14:07:39.768Z,77.90
2022-12-29T14:09:47.468Z,78.01
2022-12-29T14:11:45.598Z,78.23
2022-12-29T14:13:46.838Z,78.84
2022-12-29T14:15:46.896Z,79.25
2022-12-29T14:17:46.178Z,79.92
2022-12-29T14:19:46.524Z,80.36
2022-12-29T14:21:53.726Z,80.78
2022-12-29T14:23:54.998Z,80.84
2022-12-29T14:26:02.159Z,81.09
2022-12-29T14:28:00.374Z,81.35
2022-12-29T14:29:58.553Z,81.21
2022-12-29T14:31:57.202Z,81.31
2022-12-29T14:34:29.923Z,81.46
2022-12-29T14:36:36.253Z,81.69
2022-12-29T14:38:46.912Z,81.91
2022-12-29T14:40:45.702Z,82.17
2022-12-29T14:42:44.488Z,82.67
2022-12-29T14:44:50.902Z,82.92
2022-12-29T14:46:59.978Z,83.42
2022-12-29T14:49:02.156Z,84.28
2022-12-29T14:51:00.878Z,84.95
2022-12-29T14:53:04.124Z,84.94
2022-12-29T14:55:38.977Z,85.28
2022-12-29T14:57:41.183Z,85.75
2022-12-29T14:59:40.022Z,86.07
2022-12-29T15:01:45.293Z,86.51
2022-12-29T15:03:51.268Z,87.24
2022-12-29T15:05:53.440Z,87.25
2022-12-29T15:08:07.518Z,87.64
2022-12-29T15:10:14.754Z,87.82
2022-12-29T15:12:22.419Z,87.45
2022-12-29T15:14:37.349Z,87.80
2022-12-29T15:16:39.227Z,87.39
2022-12-29T15:18:40.488Z,87.30
2022-12-29T15:20:41.543Z,87.48
2022-12-29T15:22:44.036Z,87.81
2022-12-29T15:24:44.651Z,88.48
2022-12-29T15:26:48.782Z,89.17
2022-12-29T15:28:48.412Z,89.29
2022-12-29T15:30:55.042Z,90.33
2022-12-29T15:32:54.159Z,90.88
2022-12-29T15:34:54.549Z,91.39
2022-12-29T15:36:53.606Z,92.14
2022-12-29T15:38:52.501Z,92.89
2022-12-29T15:40:55.668Z,93.01
2022-12-29T15:43:09.763Z,93.76
2022-12-29T15:45:12.794Z,94.03
2022-12-29T15:47:18.793Z,94.86
2022-12-29T15:49:18.276Z,95.45
2022-12-29T15:51:22.586Z,95.55
2022-12-29T15:53:25.852Z,95.68
2022-12-29T15:55:30.706Z,96.09
2022-12-29T15:57:33.341Z,96.04
2022-12-29T15:59:35.135Z,96.33
2022-12-29T16:01:35.360Z,95.78
2022-12-29T16:03:36.639Z,95.87
2022-12-29T16:05:36.700Z,96.06
2022-12-29T16:07:41.536Z,96.06
2022-12-29T16:09:46.533Z,96.92
2022-12-29T16:11:47.506Z,97.07
2022-12-29T16:13:46.596Z,97.15
2022-12-29T16:15:49.510Z,97.55
2022-12-29T16:17:51.747Z,97.85
2022-12-29T16:19:52.656Z,97.72
2022-12-29T16:21:50.984Z,96.90
2022-12-29T16:23:54.673Z,96.47
2022-12-29T16:25:55.675Z,96.36
2022-12-29T16:27:54.484Z,95.37
2022-12-29T16:29:56.359Z,95.25
2022-12-29T16:32:01.861Z,95.88
2022-12-29T16:34:00.368Z,96.21
2022-12-29T16:35:58.715Z,96.18
2022-12-29T16:38:15.114Z,96.08
2022-12-29T16:40:28.201Z,96.12
2022-12-29T16:42:37.372Z,96.42
2022-12-29T16:44:35.628Z,96.99
2022-12-29T16:46:34.133Z,96.93
2022-12-29T16:48:36.870Z,96.35
2022-12-29T16:50:36.415Z,96.18
2022-12-29T16:52:36.717Z,95.63
2022-12-29T16:54:37.517Z,96.20
2022-12-29T16:56:38.388Z,96.64
2022-12-29T16:58:36.798Z,97.03
2022-12-29T17:00:38.133Z,97.44
2022-12-29T17:02:45.624Z,97.81
2022-12-29T17:04:49.427Z,98.11
2022-12-29T17:06:47.867Z,98.83
2022-12-29T17:08:47.408Z,99.25
2022-12-29T17:11:02.804Z,99.00
2022-12-29T17:13:01.054Z,99.73
2022-12-29T17:15:00.634Z,99.45
2022-12-29T17:17:01.191Z,100.00
2022-12-29T17:18:59.464Z,100.00
2022-12-29T17:20:59.576Z,100.00
2022-12-29T17:23:02.767Z,100.00
2022-12-29T17:25:03.708Z,100.00
2022-12-29T17:27:02.312Z,100.00
2022-12-29T17:29:00.483Z,100.00
2022-12-29T17:31:02.580Z,100.00
2022-12-29T17:33:05.792Z,100.00
2022-12-29T17:35:04.166Z,100.00
2022-12-29T17:37:04.323Z,100.00
2022-12-29T17:39:02.475Z,100.00
2022-12-29T17:41:01.093Z,100.00
2022-12-29T17:43:00.926Z,100.00
2022-12-29T17:44:59.228Z,100.00
2022-12-29T17:46:57.582Z,100.00
2022-12-29T17:48:55.836Z,100.00
2022-12-29T17:50:55.451Z,100.00
2022-12-29T17:53:00.959Z,100.00
2022-12-29T17:55:01.182Z,100.00
2022-12-29T17:56:59.567Z,100.00
2022-12-29T17:58:57.861Z,100.00
2022-12-29T18:00:58.451Z,100.00
2022-12-29T18:02:57.019Z,100.00
2022-12-29T18:04:55.663Z,100.00
2022-12-29T18:06:54.093Z,100.00
2022-12-29T18:08:53.685Z,100.00
2022-12-29T18:10:53.712Z,100.00
2022-12-29T18:12:54.458Z,100.00
2022-12-29T18:14:52.674Z,100.00
2022-12-29T18:16:51.094Z,100.00
2022-12-29T18:18:49.413Z,100.00
2022-12-29T18:20:49.337Z,100.00
2022-12-29T18:22:47.703Z,100.00
2022-12-29T18:24:47.128Z,100.00
2022-12-29T18:26:45.371Z,100.00
2022-12-29T18:28:44.762Z,100.00
2022-12-29T18:30:42.987Z,100.00
2022-12-29T18:32:41.252Z,100.00
2022-12-29T18:34:39.595Z,100.00
2022-12-29T18:36:37.770Z,100.00
2022-12-29T18:38:36.023Z,100.00
2022-12-29T18:40:37.136Z,100.00
2022-12-29T18:42:35.209Z,100.00
2022-12-29T18:44:33.807Z,100.00
2022-12-29T18:46:32.071Z,100.00
2022-12-29T18:48:30.274Z,100.00
2022-12-29T18:50:28.903Z,100.00
2022-12-29T18:52:27.183Z,100.00
2022-12-29T18:54:30.121Z,100.00
2022-12-29T18:56:29.976Z,100.00
2022-12-29T18:58:33.919Z,100.00
2022-12-29T19:00:32.400Z,100.00
2022-12-29T19:02:32.648Z,100.00
2022-12-29T19:04:30.959Z,100.00
2022-12-29T19:06:29.122Z,100.00
2022-12-29T19:08:27.485Z,100.00
2022-12-29T19:10:26.685Z,100.00
2022-12-29T19:12:28.517Z,100.00
2022-12-29T19:14:26.984Z,100.00
2022-12-29T19:16:26.955Z,100.00
2022-12-29T19:18:44.590Z,100.00
2022-12-29T19:20:44.949Z,100.00
2022-12-29T19:22:43.021Z,100.00
2022-12-29T19:24:41.274Z,100.00
2022-12-29T19:26:40.750Z,100.00
2022-12-29T19:28:40.291Z,100.00
2022-12-29T19:30:38.485Z,100.00
2022-12-29T19:32:36.844Z,100.00
2022-12-29T19:34:35.088Z,100.00
2022-12-29T19:36:33.671Z,100.00
2022-12-29T19:38:31.941Z,100.00
2022-12-29T19:40:30.552Z,100.00
2022-12-29T19:42:28.881Z,100.00
2022-12-29T19:44:29.087Z,100.00
2022-12-29T19:46:27.511Z,100.00
2022-12-29T19:48:25.641Z,100.00
2022-12-29T19:50:23.973Z,100.00
2022-12-29T19:52:22.178Z,100.00
2022-12-29T19:54:20.262Z,100.00
2022-12-29T19:56:18.708Z,100.00
2022-12-29T19:58:16.888Z,100.00
2022-12-29T20:00:17.580Z,100.00
2022-12-29T20:02:20.480Z,100.00
2022-12-29T20:04:18.646Z,100.00
2022-12-29T20:06:17.635Z,100.00
2022-12-29T20:08:15.971Z,100.00
2022-12-29T20:10:14.405Z,100.00
2022-12-29T20:12:13.475Z,100.00
2022-12-29T20:14:11.758Z,100.00
2022-12-29T20:16:14.981Z,100.00
2022-12-29T20:18:14.777Z,100.00
2022-12-29T20:20:14.216Z,100.00
2022-12-29T20:22:12.894Z,100.00
2022-12-29T20:24:11.139Z,100.00
2022-12-29T20:26:10.305Z,100.00
2022-12-29T20:28:08.555Z,100.00
2022-12-29T20:30:10.744Z,100.00
2022-12-29T20:32:11.261Z,100.00
2022-12-29T20:34:10.221Z,100.00
2022-12-29T20:36:10.387Z,100.00
2022-12-29T20:38:08.584Z,100.00
2022-12-29T20:40:13.120Z,100.00
2022-12-29T20:42:11.537Z,100.00
2022-12-29T20:44:09.886Z,100.00
2022-12-29T20:46:08.347Z,100.00
2022-12-29T20:48:08.063Z,100.00
2022-12-29T20:50:07.636Z,100.00
2022-12-29T20:52:07.290Z,100.00
2022-12-29T20:54:05.999Z,100.00
2022-12-29T20:56:06.845Z,100.00
2022-12-29T21:00:23.845Z,100.00
2022-12-29T21:02:25.754Z,100.00
2022-12-29T21:04:25.467Z,100.00
2022-12-29T21:06:23.651Z,100.00
2022-12-29T21:08:22.488Z,100.00
2022-12-29T21:10:20.797Z,100.00
2022-12-29T21:12:19.122Z,100.00
2022-12-29T21:14:17.349Z,100.00
2022-12-29T21:16:18.894Z,100.00
2022-12-29T21:18:17.294Z,100.00
2022-12-29T21:20:20.689Z,100.00
2022-12-29T21:22:19.190Z,100.00
2022-12-29T21:24:19.853Z,100.00
2022-12-29T21:26:20.756Z,100.00
2022-12-29T21:28:19.024Z,100.00
2022-12-29T21:30:17.368Z,100.00
2022-12-29T21:32:15.714Z,100.00
2022-12-29T21:34:14.069Z,100.00
2022-12-29T21:36:16.248Z,100.00
2022-12-29T21:38:15.055Z,100.00
2022-12-29T21:40:13.863Z,100.00
2022-12-29T21:42:12.095Z,100.00
2022-12-29T21:44:27.597Z,100.00
2022-12-29T21:46:25.712Z,100.00
2022-12-29T21:48:24.295Z,100.00
2022-12-29T21:50:22.893Z,100.00
2022-12-29T21:52:21.482Z,100.00
2022-12-29T21:54:38.505Z,100.00
2022-12-29T21:56:36.648Z,100.00
2022-12-29T21:58:53.024Z,100.00
2022-12-29T22:01:13.126Z,100.00
2022-12-29T22:03:29.584Z,100.00
2022-12-29T22:05:45.154Z,100.00
2022-12-29T22:08:02.563Z,100.00
2022-12-29T22:10:18.692Z,100.00
2022-12-29T22:12:35.127Z,100.00
2022-12-29T22:14:35.799Z,100.00
2022-12-29T22:16:35.159Z,100.00
2022-12-29T22:18:33.566Z,100.00
2022-12-29T22:20:34.636Z,100.00
2022-12-29T22:22:32.979Z,100.00
2022-12-29T22:24:33.595Z,100.00
2022-12-29T22:26:31.725Z,100.00
2022-12-29T22:28:30.043Z,100.00
2022-12-29T22:30:29.115Z,100.00
2022-12-29T22:32:28.733Z,100.00
2022-12-29T22:34:28.640Z,100.00
2022-12-29T22:36:28.079Z,100.00
2022-12-29T22:38:26.499Z,100.00
2022-12-29T22:40:32.375Z,100.00
2022-12-29T22:42:32.613Z,100.00
2022-12-29T22:44:33.807Z,100.00
2022-12-29T22:46:35.233Z,100.00
2022-12-29T22:48:33.654Z,100.00
2022-12-29T22:50:31.978Z,100.00
2022-12-29T22:52:30.261Z,100.00
2022-12-29T22:54:28.894Z,100.00
2022-12-29T22:56:28.525Z,100.00
2022-12-29T22:58:29.146Z,100.00
2022-12-29T23:00:27.487Z,100.00
2022-12-29T23:02:25.943Z,100.00
2022-12-29T23:05:01.775Z,100.00
2022-12-29T23:06:42.899Z,100.00
2022-12-29T23:08:41.368Z,100.00
2022-12-29T23:10:39.795Z,100.00
2022-12-29T23:12:39.481Z,100.00
2022-12-29T23:14:37.672Z,100.00
2022-12-29T23:16:36.063Z,100.00
2022-12-29T23:18:34.344Z,100.00
2022-12-29T23:20:32.482Z,100.00
2022-12-29T23:22:30.878Z,100.00
2022-12-29T23:24:28.995Z,100.00
2022-12-29T23:26:30.518Z,100.00
2022-12-29T23:28:30.199Z,100.00
2022-12-29T23:30:28.280Z,100.00
2022-12-29T23:32:26.630Z,100.00
2022-12-29T23:34:24.805Z,100.00
2022-12-29T23:36:23.332Z,100.00
2022-12-29T23:38:21.581Z,100.00
2022-12-29T23:40:19.705Z,100.00
2022-12-29T23:42:17.976Z,100.00
2022-12-29T23:44:17.509Z,100.00
2022-12-29T23:46:20.206Z,100.00
2022-12-29T23:48:18.555Z,100.00
2022-12-29T23:50:16.823Z,100.00
2022-12-29T23:52:15.099Z,100.00
2022-12-29T23:54:13.367Z,100.00
2022-12-29T23:56:15.180Z,100.00
2022-12-29T23:58:13.437Z,100.00
